createdAt,value
2018-09-23T00:00:56.887Z,986.38
2018-09-23T00:01:57.075Z,986.34
2018-09-23T00:02:57.252Z,986.32
2018-09-23T00:03:57.435Z,986.34
2018-09-23T00:04:57.602Z,986.33
2018-09-23T00:05:57.812Z,986.35
2018-09-23T00:06:57.960Z,986.30
2018-09-23T00:07:58.193Z,986.32
2018-09-23T00:08:58.331Z,986.29
2018-09-23T00:09:58.523Z,986.25
2018-09-23T00:10:58.684Z,986.27
2018-09-23T00:11:58.860Z,986.22
2018-09-23T00:12:59.039Z,986.18
2018-09-23T00:13:59.249Z,986.18
2018-09-23T00:14:59.397Z,986.14
2018-09-23T00:15:59.651Z,986.13
2018-09-23T00:16:59.759Z,986.12
2018-09-23T00:17:59.995Z,986.10
2018-09-23T00:19:00.124Z,986.12
2018-09-23T00:20:00.314Z,986.10
2018-09-23T00:21:00.477Z,986.05
2018-09-23T00:22:00.657Z,986.08
2018-09-23T00:23:00.843Z,986.06
2018-09-23T00:24:01.028Z,986.08
2018-09-23T00:25:01.236Z,986.03
2018-09-23T00:26:01.385Z,986.03
2018-09-23T00:27:01.572Z,986.04
2018-09-23T00:28:01.777Z,986.03
2018-09-23T00:29:02.000Z,986.02
2018-09-23T00:30:02.102Z,986.03
2018-09-23T00:31:02.320Z,986.01
2018-09-23T00:32:02.559Z,986.04
2018-09-23T00:33:02.737Z,986.05
2018-09-23T00:34:02.917Z,986.04
2018-09-23T00:35:03.101Z,986.06
2018-09-23T00:36:03.315Z,986.04
2018-09-23T00:37:03.532Z,986.06
2018-09-23T00:38:03.651Z,986.06
2018-09-23T00:39:03.849Z,986.01
2018-09-23T00:40:04.006Z,985.99
2018-09-23T00:41:04.203Z,986.00
2018-09-23T00:42:04.393Z,985.97
2018-09-23T00:43:04.560Z,986.05
2018-09-23T00:44:04.739Z,986.02
2018-09-23T00:45:04.923Z,986.07
2018-09-23T00:46:05.098Z,986.03
2018-09-23T00:47:05.320Z,985.98
2018-09-23T00:48:05.483Z,985.94
2018-09-23T00:49:05.659Z,985.98
2018-09-23T00:50:05.828Z,985.90
2018-09-23T00:51:06.000Z,985.82
2018-09-23T00:52:06.177Z,985.74
2018-09-23T00:53:06.377Z,985.68
2018-09-23T00:54:06.555Z,985.66
2018-09-23T00:55:06.744Z,985.66
2018-09-23T00:56:06.918Z,985.68
2018-09-23T00:57:07.107Z,985.71
2018-09-23T00:58:07.281Z,985.72
2018-09-23T00:59:07.451Z,985.73
2018-09-23T01:00:07.639Z,985.77
2018-09-23T01:01:07.826Z,985.81
2018-09-23T01:02:08.002Z,985.75
2018-09-23T01:03:08.188Z,985.66
2018-09-23T01:04:08.396Z,985.68
2018-09-23T01:05:08.543Z,985.71
2018-09-23T01:06:08.726Z,985.69
2018-09-23T01:07:08.932Z,985.72
2018-09-23T01:08:09.094Z,985.71
2018-09-23T01:09:09.266Z,985.67
2018-09-23T01:10:09.461Z,985.67
2018-09-23T01:11:09.619Z,985.64
2018-09-23T01:12:09.833Z,985.61
2018-09-23T01:13:09.965Z,985.59
2018-09-23T01:14:10.172Z,985.58
2018-09-23T01:15:10.326Z,985.56
2018-09-23T01:16:10.493Z,985.53
2018-09-23T01:17:10.709Z,985.50
2018-09-23T01:18:10.863Z,985.51
2018-09-23T01:19:11.066Z,985.50
2018-09-23T01:20:11.213Z,985.53
2018-09-23T01:21:11.379Z,985.46
2018-09-23T01:22:11.625Z,985.44
2018-09-23T01:23:11.736Z,985.40
2018-09-23T01:24:11.940Z,985.40
2018-09-23T01:25:12.086Z,985.35
2018-09-23T01:26:12.298Z,985.32
2018-09-23T01:27:12.508Z,985.31
2018-09-23T01:28:12.613Z,985.27
2018-09-23T01:29:12.790Z,985.24
2018-09-23T01:30:12.992Z,985.22
2018-09-23T01:31:13.147Z,985.21
2018-09-23T01:32:13.371Z,985.20
2018-09-23T01:33:13.513Z,985.20
2018-09-23T01:34:13.695Z,985.18
2018-09-23T01:35:13.880Z,985.21
2018-09-23T01:36:14.094Z,985.17
2018-09-23T01:37:14.236Z,985.21
2018-09-23T01:38:14.418Z,985.15
2018-09-23T01:39:14.621Z,985.13
2018-09-23T01:40:14.768Z,985.13
2018-09-23T01:41:14.955Z,985.15
2018-09-23T01:42:15.135Z,985.11
2018-09-23T01:43:15.316Z,985.12
2018-09-23T01:44:15.506Z,985.18
2018-09-23T01:45:15.688Z,985.16
2018-09-23T01:46:15.861Z,985.11
2018-09-23T01:47:16.056Z,985.08
2018-09-23T01:48:16.240Z,985.06
2018-09-23T01:49:16.424Z,985.06
2018-09-23T01:50:16.613Z,985.02
2018-09-23T01:51:16.799Z,984.99
2018-09-23T01:52:16.947Z,984.98
2018-09-23T01:53:17.142Z,984.93
2018-09-23T01:54:17.339Z,984.88
2018-09-23T01:55:17.499Z,984.89
2018-09-23T01:56:17.676Z,984.86
2018-09-23T01:57:17.857Z,984.83
2018-09-23T01:58:18.091Z,984.84
2018-09-23T01:59:18.221Z,984.83
2018-09-23T02:00:18.426Z,984.84
2018-09-23T02:01:18.588Z,984.86
2018-09-23T02:02:18.760Z,984.88
2018-09-23T02:03:18.944Z,984.88
2018-09-23T02:04:19.126Z,984.85
2018-09-23T02:05:19.308Z,984.79
2018-09-23T02:06:19.494Z,984.80
2018-09-23T02:07:19.685Z,984.80
2018-09-23T02:08:19.850Z,984.73
2018-09-23T02:09:20.061Z,984.71
2018-09-23T02:10:20.235Z,984.70
2018-09-23T02:11:20.398Z,984.60
2018-09-23T02:12:20.585Z,984.63
2018-09-23T02:13:20.782Z,984.61
2018-09-23T02:14:20.954Z,984.59
2018-09-23T02:15:21.136Z,984.56
2018-09-23T02:16:21.314Z,984.63
2018-09-23T02:17:21.489Z,984.63
2018-09-23T02:18:21.658Z,984.62
2018-09-23T02:19:21.828Z,984.65
2018-09-23T02:20:22.022Z,984.64
2018-09-23T02:21:22.270Z,984.67
2018-09-23T02:22:22.398Z,984.63
2018-09-23T02:23:22.549Z,984.55
2018-09-23T02:24:22.733Z,984.54
2018-09-23T02:25:22.941Z,984.54
2018-09-23T02:26:23.156Z,984.54
2018-09-23T02:27:23.281Z,984.53
2018-09-23T02:28:23.474Z,984.54
2018-09-23T02:29:23.657Z,984.50
2018-09-23T02:30:23.850Z,984.42
2018-09-23T02:31:24.032Z,984.45
2018-09-23T02:32:24.202Z,984.50
2018-09-23T02:33:24.377Z,984.57
2018-09-23T02:34:24.650Z,984.60
2018-09-23T02:35:24.786Z,984.61
2018-09-23T02:36:24.934Z,984.57
2018-09-23T02:37:25.101Z,984.57
2018-09-23T02:38:25.277Z,984.48
2018-09-23T02:39:25.452Z,984.52
2018-09-23T02:40:25.628Z,984.49
2018-09-23T02:41:25.837Z,984.48
2018-09-23T02:42:26.044Z,984.46
2018-09-23T02:43:26.225Z,984.43
2018-09-23T02:44:26.389Z,984.40
2018-09-23T02:45:26.568Z,984.41
2018-09-23T02:46:26.771Z,984.44
2018-09-23T02:47:26.924Z,984.37
2018-09-23T02:48:27.105Z,984.39
2018-09-23T02:49:27.284Z,984.35
2018-09-23T02:50:27.453Z,984.29
2018-09-23T02:51:27.631Z,984.29
2018-09-23T02:52:27.819Z,984.27
2018-09-23T02:53:28.002Z,984.29
2018-09-23T02:54:28.183Z,984.25
2018-09-23T02:55:28.362Z,984.23
2018-09-23T02:56:28.529Z,984.20
2018-09-23T02:57:28.723Z,984.17
2018-09-23T02:58:28.921Z,984.15
2018-09-23T02:59:29.125Z,984.07
2018-09-23T03:00:29.248Z,984.01
2018-09-23T03:01:29.429Z,984.04
2018-09-23T03:02:29.604Z,983.98
2018-09-23T03:03:29.791Z,983.98
2018-09-23T03:04:29.967Z,983.95
2018-09-23T03:05:30.158Z,983.93
2018-09-23T03:06:30.344Z,983.94
2018-09-23T03:07:30.522Z,983.93
2018-09-23T03:08:30.684Z,983.97
2018-09-23T03:09:30.846Z,983.92
2018-09-23T03:10:31.029Z,983.87
2018-09-23T03:11:31.235Z,983.89
2018-09-23T03:12:31.391Z,983.88
2018-09-23T03:13:31.587Z,983.89
2018-09-23T03:14:31.766Z,983.86
2018-09-23T03:15:31.941Z,983.76
2018-09-23T03:16:32.095Z,983.75
2018-09-23T03:17:32.287Z,983.73
2018-09-23T03:18:32.442Z,983.75
2018-09-23T03:19:32.666Z,983.70
2018-09-23T03:20:32.849Z,983.74
2018-09-23T03:21:33.053Z,983.72
2018-09-23T03:22:33.244Z,983.69
2018-09-23T03:23:33.404Z,983.65
2018-09-23T03:24:33.640Z,983.63
2018-09-23T03:25:33.755Z,983.62
2018-09-23T03:26:33.943Z,983.63
2018-09-23T03:27:34.117Z,983.61
2018-09-23T03:28:34.305Z,983.60
2018-09-23T03:29:34.479Z,983.60
2018-09-23T03:30:34.662Z,983.56
2018-09-23T03:31:34.846Z,983.55
2018-09-23T03:32:35.001Z,983.46
2018-09-23T03:33:35.210Z,983.34
2018-09-23T03:34:35.368Z,983.28
2018-09-23T03:35:35.543Z,983.26
2018-09-23T03:36:35.726Z,983.25
2018-09-23T03:37:35.921Z,983.27
2018-09-23T03:38:36.070Z,983.26
2018-09-23T03:39:36.272Z,983.29
2018-09-23T03:40:36.441Z,983.33
2018-09-23T03:41:36.609Z,983.32
2018-09-23T03:42:36.811Z,983.39
2018-09-23T03:43:36.973Z,983.36
2018-09-23T03:44:37.157Z,983.36
2018-09-23T03:45:37.410Z,983.35
2018-09-23T03:46:37.505Z,983.33
2018-09-23T03:47:37.675Z,983.30
2018-09-23T03:48:37.855Z,983.27
2018-09-23T03:49:38.029Z,983.27
2018-09-23T03:50:38.221Z,983.31
2018-09-23T03:51:38.398Z,983.29
2018-09-23T03:52:38.574Z,983.24
2018-09-23T03:53:38.764Z,983.21
2018-09-23T03:54:38.962Z,983.13
2018-09-23T03:55:39.116Z,983.00
2018-09-23T03:56:39.303Z,982.98
2018-09-23T03:57:39.484Z,982.95
2018-09-23T03:58:39.674Z,982.88
2018-09-23T03:59:39.860Z,982.85
2018-09-23T04:00:40.053Z,982.76
2018-09-23T04:01:40.236Z,982.80
2018-09-23T04:02:40.388Z,982.77
2018-09-23T04:03:40.571Z,982.82
2018-09-23T04:04:40.748Z,982.83
2018-09-23T04:05:40.932Z,982.88
2018-09-23T04:06:41.118Z,982.88
2018-09-23T04:07:41.297Z,982.90
2018-09-23T04:08:41.472Z,982.87
2018-09-23T04:09:41.649Z,982.88
2018-09-23T04:10:41.851Z,982.90
2018-09-23T04:13:24.727Z,982.84
2018-09-23T04:14:24.927Z,982.91
2018-09-23T04:15:25.086Z,982.91
2018-09-23T04:16:25.267Z,982.97
2018-09-23T04:17:25.444Z,982.92
2018-09-23T04:18:25.619Z,982.95
2018-09-23T04:19:25.816Z,982.94
2018-09-23T04:20:25.970Z,982.87
2018-09-23T04:21:26.210Z,982.87
2018-09-23T04:22:26.332Z,982.87
2018-09-23T04:23:27.148Z,982.85
2018-09-23T04:24:26.676Z,982.84
2018-09-23T04:25:26.892Z,982.84
2018-09-23T04:26:27.037Z,982.76
2018-09-23T04:27:27.217Z,982.74
2018-09-23T04:28:27.399Z,982.73
2018-09-23T04:29:27.602Z,982.70
2018-09-23T04:30:27.776Z,982.72
2018-09-23T04:31:27.948Z,982.73
2018-09-23T04:32:28.250Z,982.75
2018-09-23T04:33:28.336Z,982.70
2018-09-23T04:34:28.474Z,982.69
2018-09-23T04:35:28.663Z,982.65
2018-09-23T04:36:28.813Z,982.66
2018-09-23T04:37:29.003Z,982.72
2018-09-23T04:38:29.211Z,982.72
2018-09-23T04:39:29.405Z,982.74
2018-09-23T04:40:29.589Z,982.75
2018-09-23T04:41:29.776Z,982.75
2018-09-23T04:42:29.968Z,982.76
2018-09-23T04:43:30.139Z,982.78
2018-09-23T04:44:30.319Z,982.76
2018-09-23T04:45:30.504Z,982.70
2018-09-23T04:46:30.744Z,982.63
2018-09-23T04:47:30.855Z,982.59
2018-09-23T04:48:31.036Z,982.54
2018-09-23T04:49:31.213Z,982.49
2018-09-23T04:50:31.399Z,982.50
2018-09-23T04:51:31.581Z,982.51
2018-09-23T04:52:31.757Z,982.47
2018-09-23T04:53:31.984Z,982.40
2018-09-23T04:54:32.116Z,982.30
2018-09-23T04:55:32.314Z,982.23
2018-09-23T04:56:32.504Z,982.21
2018-09-23T04:57:32.684Z,982.22
2018-09-23T04:58:32.867Z,982.18
2018-09-23T04:59:33.053Z,982.19
2018-09-23T05:00:33.228Z,982.19
2018-09-23T05:01:33.410Z,982.28
2018-09-23T05:02:33.611Z,982.31
2018-09-23T05:03:33.776Z,982.30
2018-09-23T05:04:33.980Z,982.26
2018-09-23T05:05:34.124Z,982.23
2018-09-23T05:06:34.297Z,982.24
2018-09-23T05:07:34.494Z,982.23
2018-09-23T05:08:34.678Z,982.19
2018-09-23T05:09:34.882Z,982.18
2018-09-23T05:10:35.054Z,982.14
2018-09-23T05:11:35.234Z,982.09
2018-09-23T05:12:35.421Z,982.05
2018-09-23T05:13:35.611Z,982.05
2018-09-23T05:14:35.785Z,982.00
2018-09-23T05:15:35.949Z,981.98
2018-09-23T05:16:36.143Z,981.96
2018-09-23T05:17:36.300Z,981.95
2018-09-23T05:18:36.480Z,981.92
2018-09-23T05:19:36.642Z,981.91
2018-09-23T05:20:36.851Z,981.95
2018-09-23T05:21:37.029Z,981.96
2018-09-23T05:22:37.205Z,981.98
2018-09-23T05:23:37.384Z,982.01
2018-09-23T05:24:37.562Z,981.99
2018-09-23T05:25:37.742Z,982.01
2018-09-23T05:26:37.933Z,981.99
2018-09-23T05:27:38.125Z,981.99
2018-09-23T05:28:38.296Z,981.93
2018-09-23T05:29:38.475Z,981.94
2018-09-23T05:30:38.665Z,981.90
2018-09-23T05:31:38.844Z,981.85
2018-09-23T05:32:39.051Z,981.80
2018-09-23T05:33:39.230Z,981.70
2018-09-23T05:34:39.417Z,981.64
2018-09-23T05:35:39.597Z,981.67
2018-09-23T05:36:39.779Z,981.68
2018-09-23T05:37:39.963Z,981.64
2018-09-23T05:38:40.144Z,981.67
2018-09-23T05:39:40.323Z,981.72
2018-09-23T05:40:40.560Z,981.71
2018-09-23T05:41:40.701Z,981.70
2018-09-23T05:42:40.908Z,981.69
2018-09-23T05:43:41.045Z,981.69
2018-09-23T05:44:41.239Z,981.67
2018-09-23T05:45:41.417Z,981.73
2018-09-23T05:46:41.667Z,981.74
2018-09-23T05:47:41.827Z,981.78
2018-09-23T05:48:42.011Z,981.78
2018-09-23T05:49:42.156Z,981.72
2018-09-23T05:50:42.331Z,981.71
2018-09-23T05:51:42.523Z,981.69
2018-09-23T05:52:42.680Z,981.68
2018-09-23T05:53:42.861Z,981.64
2018-09-23T05:54:43.051Z,981.61
2018-09-23T05:55:43.249Z,981.59
2018-09-23T05:56:43.409Z,981.54
2018-09-23T05:57:43.590Z,981.49
2018-09-23T05:58:43.788Z,981.54
2018-09-23T05:59:43.940Z,981.54
2018-09-23T06:00:44.129Z,981.52
2018-09-23T06:01:44.300Z,981.52
2018-09-23T06:02:44.494Z,981.47
2018-09-23T06:03:44.659Z,981.47
2018-09-23T06:04:44.823Z,981.44
2018-09-23T06:05:45.007Z,981.45
2018-09-23T06:06:45.193Z,981.48
2018-09-23T06:07:45.366Z,981.52
2018-09-23T06:08:45.559Z,981.54
2018-09-23T06:09:45.732Z,981.52
2018-09-23T06:10:45.908Z,981.50
2018-09-23T06:11:46.105Z,981.48
2018-09-23T06:12:46.294Z,981.46
2018-09-23T06:13:46.460Z,981.47
2018-09-23T06:14:46.641Z,981.44
2018-09-23T06:15:46.831Z,981.42
2018-09-23T06:16:47.033Z,981.39
2018-09-23T06:17:47.189Z,981.41
2018-09-23T06:18:47.378Z,981.41
2018-09-23T06:19:47.550Z,981.38
2018-09-23T06:20:47.729Z,981.31
2018-09-23T06:21:47.908Z,981.33
2018-09-23T06:22:48.119Z,981.26
2018-09-23T06:23:48.287Z,981.25
2018-09-23T06:24:48.435Z,981.27
2018-09-23T06:25:48.622Z,981.26
2018-09-23T06:26:48.822Z,981.21
2018-09-23T06:27:49.005Z,981.23
2018-09-23T06:28:49.153Z,981.26
2018-09-23T06:29:49.354Z,981.24
2018-09-23T06:30:49.526Z,981.31
2018-09-23T06:31:49.701Z,981.29
2018-09-23T06:32:49.891Z,981.27
2018-09-23T06:33:50.089Z,981.26
2018-09-23T06:34:50.269Z,981.21
2018-09-23T06:35:50.451Z,981.23
2018-09-23T06:36:50.635Z,981.21
2018-09-23T06:37:50.823Z,981.20
2018-09-23T06:38:50.991Z,981.15
2018-09-23T06:39:51.184Z,981.10
2018-09-23T06:40:51.360Z,981.06
2018-09-23T06:41:51.529Z,981.04
2018-09-23T06:42:51.710Z,981.01
2018-09-23T06:43:51.886Z,980.97
2018-09-23T06:44:52.059Z,980.93
2018-09-23T06:45:52.409Z,980.90
2018-09-23T06:46:52.389Z,980.84
2018-09-23T06:47:52.577Z,980.89
2018-09-23T06:48:52.749Z,980.91
2018-09-23T06:49:52.930Z,980.92
2018-09-23T06:50:53.132Z,980.94
2018-09-23T06:51:53.311Z,980.95
2018-09-23T06:52:53.527Z,980.90
2018-09-23T06:53:53.670Z,980.94
2018-09-23T06:54:53.848Z,980.88
2018-09-23T06:55:54.035Z,980.85
2018-09-23T06:56:54.252Z,980.81
2018-09-23T06:57:54.432Z,980.83
2018-09-23T06:58:54.609Z,980.81
2018-09-23T06:59:54.775Z,980.80
2018-09-23T07:00:54.946Z,980.74
2018-09-23T07:01:55.113Z,980.73
2018-09-23T07:02:55.294Z,980.74
2018-09-23T07:03:55.459Z,980.73
2018-09-23T07:04:55.681Z,980.76
2018-09-23T07:05:55.844Z,980.73
2018-09-23T07:06:56.026Z,980.72
2018-09-23T07:07:56.239Z,980.74
2018-09-23T07:08:56.397Z,980.74
2018-09-23T07:09:56.587Z,980.72
2018-09-23T07:10:56.764Z,980.75
2018-09-23T07:11:56.960Z,980.80
2018-09-23T07:12:57.128Z,980.85
2018-09-23T07:13:57.321Z,980.84
2018-09-23T07:14:57.490Z,980.85
2018-09-23T07:15:57.674Z,980.81
2018-09-23T07:16:57.858Z,980.77
2018-09-23T07:17:58.098Z,980.75
2018-09-23T07:18:58.221Z,980.77
2018-09-23T07:19:58.404Z,980.78
2018-09-23T07:20:58.588Z,980.77
2018-09-23T07:21:58.767Z,980.75
2018-09-23T07:22:58.953Z,980.69
2018-09-23T07:23:59.188Z,980.75
2018-09-23T07:24:59.311Z,980.70
2018-09-23T07:25:59.493Z,980.67
2018-09-23T07:26:59.667Z,980.64
2018-09-23T07:27:59.855Z,980.61
2018-09-23T07:29:00.030Z,980.63
2018-09-23T07:30:00.252Z,980.62
2018-09-23T07:31:00.402Z,980.60
2018-09-23T07:32:00.593Z,980.57
2018-09-23T07:33:00.744Z,980.51
2018-09-23T07:34:00.905Z,980.50
2018-09-23T07:35:01.109Z,980.50
2018-09-23T07:36:01.279Z,980.53
2018-09-23T07:37:01.542Z,980.52
2018-09-23T07:38:01.626Z,980.54
2018-09-23T07:39:01.821Z,980.54
2018-09-23T07:40:02.008Z,980.51
2018-09-23T07:41:02.153Z,980.49
2018-09-23T07:42:02.336Z,980.51
2018-09-23T07:43:02.524Z,980.51
2018-09-23T07:44:02.704Z,980.55
2018-09-23T07:45:02.891Z,980.56
2018-09-23T07:46:03.073Z,980.57
2018-09-23T07:47:03.269Z,980.57
2018-09-23T07:48:03.456Z,980.58
2018-09-23T07:49:03.637Z,980.60
2018-09-23T07:50:03.788Z,980.60
2018-09-23T07:51:03.983Z,980.61
2018-09-23T07:52:04.197Z,980.59
2018-09-23T07:53:04.317Z,980.57
2018-09-23T07:54:04.524Z,980.55
2018-09-23T07:55:04.689Z,980.50
2018-09-23T07:56:04.931Z,980.45
2018-09-23T07:57:05.044Z,980.42
2018-09-23T07:58:05.235Z,980.44
2018-09-23T07:59:05.424Z,980.41
2018-09-23T08:00:05.569Z,980.40
2018-09-23T08:01:05.756Z,980.42
2018-09-23T08:02:05.933Z,980.39
2018-09-23T08:03:06.121Z,980.39
2018-09-23T08:04:06.314Z,980.37
2018-09-23T08:05:06.506Z,980.35
2018-09-23T08:06:06.695Z,980.32
2018-09-23T08:07:06.854Z,980.31
2018-09-23T08:08:07.033Z,980.30
2018-09-23T08:09:07.319Z,980.32
2018-09-23T08:10:07.444Z,980.36
2018-09-23T08:11:07.627Z,980.32
2018-09-23T08:12:07.812Z,980.34
2018-09-23T08:13:08.135Z,980.29
2018-09-23T08:14:08.560Z,980.30
2018-09-23T08:15:08.356Z,980.29
2018-09-23T08:16:08.553Z,980.29
2018-09-23T08:17:08.730Z,980.29
2018-09-23T08:18:08.929Z,980.29
2018-09-23T08:19:09.072Z,980.32
2018-09-23T08:20:09.335Z,980.29
2018-09-23T08:21:09.464Z,980.31
2018-09-23T08:22:09.644Z,980.26
2018-09-23T08:23:09.816Z,980.23
2018-09-23T08:24:10.014Z,980.20
2018-09-23T08:25:10.372Z,980.19
2018-09-23T08:26:10.339Z,980.17
2018-09-23T08:27:10.591Z,980.18
2018-09-23T08:28:10.809Z,980.16
2018-09-23T08:29:10.884Z,980.21
2018-09-23T08:30:11.089Z,980.20
2018-09-23T08:31:11.281Z,980.18
2018-09-23T08:32:11.418Z,980.17
2018-09-23T08:33:11.637Z,980.13
2018-09-23T08:34:11.863Z,980.14
2018-09-23T08:35:12.006Z,980.07
2018-09-23T08:36:12.209Z,980.04
2018-09-23T08:37:12.436Z,980.02
2018-09-23T08:38:12.534Z,980.06
2018-09-23T08:39:12.716Z,980.05
2018-09-23T08:40:12.902Z,980.05
2018-09-23T08:41:13.123Z,979.97
2018-09-23T08:42:13.338Z,979.96
2018-09-23T08:43:13.536Z,979.93
2018-09-23T08:44:13.684Z,979.90
2018-09-23T08:45:13.880Z,979.94
2018-09-23T08:46:14.075Z,979.84
2018-09-23T08:47:14.278Z,979.85
2018-09-23T08:48:14.413Z,979.80
2018-09-23T08:49:14.578Z,979.83
2018-09-23T08:50:14.763Z,979.83
2018-09-23T08:51:14.949Z,979.83
2018-09-23T08:52:15.215Z,979.83
2018-09-23T08:53:15.327Z,979.81
2018-09-23T08:54:15.459Z,979.78
2018-09-23T08:55:15.634Z,979.73
2018-09-23T08:56:15.851Z,979.71
2018-09-23T08:57:15.989Z,979.71
2018-09-23T08:58:16.164Z,979.71
2018-09-23T08:59:16.340Z,979.64
2018-09-23T09:00:16.549Z,979.65
2018-09-23T09:01:16.742Z,979.63
2018-09-23T09:02:16.877Z,979.62
2018-09-23T09:03:17.062Z,979.58
2018-09-23T09:04:17.270Z,979.55
2018-09-23T09:05:17.455Z,979.49
2018-09-23T09:06:17.585Z,979.47
2018-09-23T09:07:17.782Z,979.44
2018-09-23T09:08:17.967Z,979.44
2018-09-23T09:09:18.138Z,979.45
2018-09-23T09:10:18.358Z,979.43
2018-09-23T09:11:18.493Z,979.39
2018-09-23T09:12:18.656Z,979.44
2018-09-23T09:13:18.862Z,979.43
2018-09-23T09:14:19.040Z,979.41
2018-09-23T09:15:19.229Z,979.43
2018-09-23T09:16:19.408Z,979.40
2018-09-23T09:17:19.598Z,979.39
2018-09-23T09:18:19.782Z,979.37
2018-09-23T09:19:19.964Z,979.35
2018-09-23T09:20:20.141Z,979.32
2018-09-23T09:21:20.317Z,979.30
2018-09-23T09:22:20.494Z,979.32
2018-09-23T09:23:20.671Z,979.30
2018-09-23T09:24:20.862Z,979.32
2018-09-23T09:25:21.031Z,979.31
2018-09-23T09:26:21.218Z,979.25
2018-09-23T09:27:21.375Z,979.27
2018-09-23T09:28:21.571Z,979.24
2018-09-23T09:29:21.745Z,979.24
2018-09-23T09:30:21.928Z,979.26
2018-09-23T09:31:22.147Z,979.23
2018-09-23T09:32:22.286Z,979.21
2018-09-23T09:33:22.457Z,979.18
2018-09-23T09:34:22.653Z,979.15
2018-09-23T09:35:22.873Z,979.10
2018-09-23T09:36:23.088Z,979.10
2018-09-23T09:37:23.187Z,979.06
2018-09-23T09:38:23.388Z,979.07
2018-09-23T09:39:23.548Z,979.04
2018-09-23T09:40:23.721Z,979.02
2018-09-23T09:41:23.927Z,978.99
2018-09-23T09:42:24.095Z,978.90
2018-09-23T09:43:24.280Z,978.90
2018-09-23T09:44:24.462Z,978.87
2018-09-23T09:45:24.647Z,978.85
2018-09-23T09:46:24.822Z,978.84
2018-09-23T09:47:25.013Z,978.85
2018-09-23T09:48:25.164Z,978.79
2018-09-23T09:49:25.334Z,978.74
2018-09-23T09:50:25.535Z,978.78
2018-09-23T09:51:25.720Z,978.74
2018-09-23T09:52:25.915Z,978.73
2018-09-23T09:53:26.140Z,978.70
2018-09-23T09:54:26.256Z,978.70
2018-09-23T09:55:26.483Z,978.74
2018-09-23T09:56:26.620Z,978.76
2018-09-23T09:57:26.785Z,978.73
2018-09-23T09:58:26.969Z,978.69
2018-09-23T09:59:27.158Z,978.64
2018-09-23T10:00:27.336Z,978.60
2018-09-23T10:01:27.513Z,978.53
2018-09-23T10:02:27.695Z,978.49
2018-09-23T10:03:27.869Z,978.44
2018-09-23T10:04:28.095Z,978.45
2018-09-23T10:05:28.227Z,978.37
2018-09-23T10:06:28.411Z,978.34
2018-09-23T10:07:28.610Z,978.29
2018-09-23T10:08:28.767Z,978.32
2018-09-23T10:09:28.964Z,978.21
2018-09-23T10:10:29.169Z,978.26
2018-09-23T10:11:29.416Z,978.24
2018-09-23T10:12:30.202Z,978.25
2018-09-23T10:13:29.763Z,978.23
2018-09-23T10:14:29.919Z,978.21
2018-09-23T10:15:30.082Z,978.18
2018-09-23T10:16:30.291Z,978.19
2018-09-23T10:17:30.476Z,978.14
2018-09-23T10:18:30.984Z,978.15
2018-09-23T10:19:30.914Z,978.12
2018-09-23T10:20:31.422Z,978.12
2018-09-23T10:21:31.255Z,978.10
2018-09-23T10:22:31.489Z,978.09
2018-09-23T10:23:31.743Z,978.08
2018-09-23T10:24:31.962Z,978.12
2018-09-23T10:25:32.073Z,978.09
2018-09-23T10:26:32.153Z,978.07
2018-09-23T10:27:32.527Z,978.05
2018-09-23T10:28:32.589Z,978.03
2018-09-23T10:29:32.822Z,978.03
2018-09-23T10:30:33.058Z,977.95
2018-09-23T10:31:33.136Z,978.00
2018-09-23T10:32:33.533Z,977.94
2018-09-23T10:33:34.328Z,977.90
2018-09-23T10:34:33.689Z,977.86
2018-09-23T10:35:33.832Z,977.78
2018-09-23T10:36:34.017Z,977.74
2018-09-23T10:37:34.189Z,977.68
2018-09-23T10:38:34.412Z,977.62
2018-09-23T10:39:35.933Z,977.54
2018-09-23T10:40:34.755Z,977.49
2018-09-23T10:41:34.957Z,977.49
2018-09-23T10:42:35.145Z,977.49
2018-09-23T10:43:35.337Z,977.47
2018-09-23T10:44:36.013Z,977.52
2018-09-23T10:45:35.731Z,977.49
2018-09-23T10:46:35.879Z,977.42
2018-09-23T10:47:36.592Z,977.34
2018-09-23T10:48:37.413Z,977.26
2018-09-23T10:49:36.529Z,977.23
2018-09-23T10:50:36.633Z,977.21
2018-09-23T10:51:37.419Z,977.12
2018-09-23T10:52:37.203Z,977.08
2018-09-23T10:53:37.272Z,977.04
2018-09-23T10:54:38.921Z,977.01
2018-09-23T10:55:38.515Z,976.96
2018-09-23T10:56:37.672Z,976.96
2018-09-23T10:57:37.829Z,976.93
2018-09-23T10:58:38.053Z,976.93
2018-09-23T10:59:38.202Z,976.90
2018-09-23T11:00:38.413Z,976.79
2018-09-23T11:01:39.580Z,976.82
2018-09-23T11:02:38.776Z,976.76
2018-09-23T11:03:40.808Z,976.70
2018-09-23T11:04:39.742Z,976.70
2018-09-23T11:05:41.603Z,976.69
2018-09-23T11:06:39.583Z,976.62
2018-09-23T11:07:39.854Z,976.61
2018-09-23T11:08:39.966Z,976.57
2018-09-23T11:09:40.183Z,976.56
2018-09-23T11:10:40.371Z,976.48
2018-09-23T11:11:40.545Z,976.43
